Main page
METAR-TAF:

METAR-TAF

Airports :

London Southend Airport

London-Southend, England

latitude: 51-34N, longitude: 000-42E, elevation: 15 m

Current weather observation

The report was made 12 minutes ago, at 05:20 UTC
Wind 9 kt from the West
Temperature 16°C
Humidity 72%
Pressure 1014 hPa
Visibility 10 km or more
no clouds below 1500 m and no cumulonimbus

METAR: EGMC 170520Z 26009KT CAVOK 16/11 Q1014

Time: 06:32 (05:32 UTC)

Forecast

The report was made 3 hours and 38 minutes ago, at 01:54 UTC
Forecast valid from 17 at 03 UTC to 17 at 12 UTC
Wind 9 kt from the West
Visibility 10 km or more
Few clouds at a height of 3000 ft

TAF: EGMC 170154Z 1703/1712 27009KT 9999 FEW030

Weather observations and forecasts of more than 4000 airports (METAR and TAF reports).

The available stations are represented by yellow and red dots on the map.

Hover mouse over dot to see the name of the station.

Then click to see weather observations and forecasts.

To change the map : click on the green buttons with a black cross to zoom in, on the green button with a dash to zoom out, or on the green arrows for adjacent maps.


METAR-TAF: